Time;durP1;ratioP1;P1;durP2;ratioP2;P2;SDS_P1;SDS_P2;PMS_P1;PMS_P2;Temp;Humidity;BMP_temperature;BMP_pressure;BME280_temperature;BME280_humidity;BME280_pressure;Samples;Min_cycle;Max_cycle;Signal;HPM_P1;HPM_P2
2022/03/20 00:02:23;;;;;;;;;;;;;;;5.63;59.51;102096.88;4410111;32;28409;-88
2022/03/20 00:04:49;;;;;;;;;;;;;;;5.63;59.51;102096.00;4410710;32;20294;-88
2022/03/20 00:07:14;;;;;;;;;;;;;;;5.44;59.49;102084.31;4410463;32;20366;-87
2022/03/20 00:09:39;;;;;;;;;;;;;;;5.48;59.50;102088.75;4410600;32;20307;-87
2022/03/20 00:12:05;;;;;;;;;;;;;;;5.55;59.51;102088.06;4410712;32;20057;-87
2022/03/20 00:14:30;;;;;;;;;;;;;;;5.34;59.49;102088.38;4424533;32;19982;-87
2022/03/20 00:16:55;;;;;;;;;;;;;;;5.41;59.49;102087.69;4424494;32;20021;-88
2022/03/20 00:19:21;;;;;;;;;;;;;;;5.50;59.50;102094.81;4424434;32;19982;-87
2022/03/20 00:21:46;;;;;;;;;;;;;;;5.38;59.50;102085.03;4410420;32;19990;-87
2022/03/20 00:24:11;;;;;;;;;;;;;;;5.45;59.50;102084.37;4410492;32;20289;-87
2022/03/20 00:26:39;;;;;;;;;;;;;;;5.36;59.49;102091.00;4397891;32;19974;-88
2022/03/20 00:29:04;;;;;;;;;;;;;;;5.37;59.49;102090.16;4410810;32;20000;-87
2022/03/20 00:31:32;;;;;;;;;;;;;;;5.50;59.50;102084.50;4410540;32;20018;-88
2022/03/20 00:33:57;;;;;;;;;;;;;;;5.44;59.50;102084.31;4410658;32;19977;-87
2022/03/20 00:36:22;;;;;;;;;;;;;;;5.57;59.51;102086.38;4410337;32;20275;-87
2022/03/20 00:38:48;;;;;;;;;;;;;;;5.44;59.50;102080.03;4410341;32;20049;-87
2022/03/20 00:41:13;;;;;;;;;;;;;;;5.34;59.49;102075.44;4409901;32;19978;-86
2022/03/20 00:43:38;;;;;;;;;;;;;;;5.37;59.50;102082.41;4410138;32;19986;-87
2022/03/20 00:46:04;;;;;;;;;;;;;;;5.34;59.49;102070.28;4424222;32;20315;-87
2022/03/20 00:48:29;;;;;;;;;;;;;;;5.42;59.49;102085.97;4410350;32;20017;-87
2022/03/20 00:50:54;;;;;;;;;;;;;;;5.41;59.49;102089.41;4408721;32;27240;-87
2022/03/20 00:53:19;;;;;;;;;;;;;;;5.29;59.49;102084.78;4424212;32;20024;-87
2022/03/20 00:55:45;;;;;;;;;;;;;;;5.34;59.49;102093.53;4423651;32;20004;-87
2022/03/20 00:58:11;;;;;;;;;;;;;;;5.23;59.49;102080.34;4408360;32;27949;-87
2022/03/20 01:00:37;;;;;;;;;;;;;;;5.15;59.47;102079.25;4424075;32;19973;-87
2022/03/20 01:03:02;;;;;;;;;;;;;;;5.18;59.49;102086.19;4410084;32;20022;-87
2022/03/20 01:05:28;;;;;;;;;;;;;;;5.18;59.49;102083.59;4423976;32;19982;-87
2022/03/20 01:07:53;;;;;;;;;;;;;;;5.17;59.49;102079.28;4423994;32;20027;-87
2022/03/20 01:10:18;;;;;;;;;;;;;;;5.31;59.48;102071.91;4423156;32;22822;-87
2022/03/20 01:12:43;;;;;;;;;;;;;;;5.19;59.49;102070.75;4423905;32;19996;-87
2022/03/20 01:15:10;;;;;;;;;;;;;;;5.24;59.49;102070.87;4423913;32;20287;-87
2022/03/20 01:17:35;;;;;;;;;;;;;;;5.16;59.48;102073.25;4410015;32;20001;-87
2022/03/20 01:20:00;;;;;;;;;;;;;;;5.05;59.47;102068.63;4409014;32;22544;-87
2022/03/20 01:22:25;;;;;;;;;;;;;;;5.02;59.47;102066.84;4423519;32;19985;-87
2022/03/20 01:24:51;;;;;;;;;;;;;;;4.97;59.47;102073.59;4409488;32;19977;-87
2022/03/20 01:27:16;;;;;;;;;;;;;;;4.91;59.47;102076.84;4423524;32;19978;-88
2022/03/20 01:29:42;;;;;;;;;;;;;;;4.87;59.47;102090.50;4409498;32;20323;-87
2022/03/20 01:32:08;;;;;;;;;;;;;;;4.96;59.47;102089.00;4409414;32;20628;-87
2022/03/20 01:34:34;;;;;;;;;;;;;;;4.93;59.47;102087.22;4423314;32;20030;-88
2022/03/20 01:36:59;;;;;;;;;;;;;;;4.90;59.47;102084.56;4423403;32;19982;-87
2022/03/20 01:39:24;;;;;;;;;;;;;;;4.91;59.47;102086.31;4409343;32;19982;-87
2022/03/20 01:41:49;;;;;;;;;;;;;;;4.78;59.45;102094.53;4409340;32;20373;-87
2022/03/20 01:44:14;;;;;;;;;;;;;;;4.57;59.45;102111.13;4408830;32;24086;-87
2022/03/20 01:46:40;;;;;;;;;;;;;;;4.48;59.44;102102.22;4423357;32;19994;-87
2022/03/20 01:49:05;;;;;;;;;;;;;;;4.54;59.45;102105.88;4423106;32;19974;-87
2022/03/20 01:54:15;;;;;;;;;;;;;;;4.37;59.44;102121.66;4411471;32;20029;-86
2022/03/20 01:56:42;;;;;;;;;;;;;;;4.41;59.44;102116.62;4409002;32;19997;-87
2022/03/20 01:59:07;;;;;;;;;;;;;;;4.37;59.44;102119.97;4409245;32;19990;-87
2022/03/20 02:01:33;;;;;;;;;;;;;;;4.20;59.42;102123.69;4409302;32;20000;-86
2022/03/20 02:03:58;;;;;;;;;;;;;;;4.31;59.43;102132.66;4425253;32;19989;-87
2022/03/20 02:06:24;;;;;;;;;;;;;;;4.25;59.43;102125.59;4425298;32;19997;-87
2022/03/20 02:08:49;;;;;;;;;;;;;;;3.99;59.42;102124.75;4411270;32;20023;-87
2022/03/20 02:11:14;;;;;;;;;;;;;;;4.09;59.42;102130.22;4410986;32;19978;-87
2022/03/20 02:13:40;;;;;;;;;;;;;;;4.21;59.43;102128.91;4411117;32;20399;-87
2022/03/20 02:16:05;;;;;;;;;;;;;;;4.18;59.43;102126.22;4411280;32;20236;-87
2022/03/20 02:18:31;;;;;;;;;;;;;;;4.13;59.42;102132.94;4411042;32;19986;-87
2022/03/20 02:20:57;;;;;;;;;;;;;;;4.11;59.42;102134.59;4411020;32;20008;-87
2022/03/20 02:23:22;;;;;;;;;;;;;;;3.94;59.41;102131.47;4411257;32;20339;-87
2022/03/20 02:25:48;;;;;;;;;;;;;;;3.85;59.41;102140.59;4411058;32;20294;-88
2022/03/20 02:28:13;;;;;;;;;;;;;;;3.82;59.40;102136.22;4411174;32;20004;-87
2022/03/20 02:30:39;;;;;;;;;;;;;;;3.85;59.41;102133.75;4411219;32;19985;-87
2022/03/20 02:33:04;;;;;;;;;;;;;;;3.85;59.41;102133.75;4410700;32;24811;-87
2022/03/20 02:35:31;;;;;;;;;;;;;;;3.86;59.41;102138.06;4410999;32;20056;-87
2022/03/20 02:37:57;;;;;;;;;;;;;;;3.71;59.40;102127.25;4411302;32;19998;-87
2022/03/20 02:40:22;;;;;;;;;;;;;;;3.74;59.40;102129.03;4410509;32;22768;-87
2022/03/20 02:42:50;;;;;;;;;;;;;;;3.55;59.39;102133.59;4410970;32;20038;-87
2022/03/20 02:45:16;;;;;;;;;;;;;;;3.65;59.39;102132.19;4425013;32;20380;-87
2022/03/20 02:47:43;;;;;;;;;;;;;;;3.54;59.38;102136.09;4411053;32;20000;-87
2022/03/20 02:50:16;;;;;;;;;;;;;;;3.57;59.39;102136.22;4410993;32;20002;-87
2022/03/20 02:52:49;;;;;;;;;;;;;;;3.55;59.39;102137.84;4424882;32;19985;-87
2022/03/20 02:55:15;;;;;;;;;;;;;;;3.46;59.38;102137.53;4411055;32;20051;-88
2022/03/20 02:57:40;;;;;;;;;;;;;;;3.34;59.38;102153.44;4410952;32;20057;-87
2022/03/20 03:00:06;;;;;;;;;;;;;;;3.49;59.38;102150.50;4424945;32;19981;-87
2022/03/20 03:02:35;;;;;;;;;;;;;;;3.41;59.39;102157.09;4424828;32;20029;-87
2022/03/20 03:05:00;;;;;;;;;;;;;;;3.41;59.38;102162.25;4410982;32;20020;-87
2022/03/20 03:07:26;;;;;;;;;;;;;;;3.51;59.38;102162.59;4410948;32;20286;-87
2022/03/20 03:12:35;;;;;;;;;;;;;;;3.17;59.36;102168.25;4412935;32;20015;-87
2022/03/20 03:15:19;;;;;;;;;;;;;;;3.20;59.37;102170.06;4409644;32;31399;-86
2022/03/20 03:17:44;;;;;;;;;;;;;;;3.12;59.36;102181.78;4424871;32;19977;-87
2022/03/20 03:20:10;;;;;;;;;;;;;;;3.15;59.36;102179.31;4410830;32;20031;-87
2022/03/20 03:22:35;;;;;;;;;;;;;;;3.12;59.36;102186.94;4424780;32;20318;-87
2022/03/20 03:25:00;;;;;;;;;;;;;;;3.13;59.36;102194.69;4410307;32;23656;-87
2022/03/20 03:27:25;;;;;;;;;;;;;;;3.10;59.37;102196.28;4424741;32;19996;-87
2022/03/20 03:29:51;;;;;;;;;;;;;;;3.04;59.36;102194.34;4410809;32;20024;-87
2022/03/20 03:32:16;;;;;;;;;;;;;;;2.95;59.36;102199.16;4410737;32;19977;-87
2022/03/20 03:37:27;;;;;;;;;;;;;;;2.85;59.34;102208.22;4397067;32;19981;-88
2022/03/20 03:39:52;;;;;;;;;;;;;;;2.86;59.34;102211.66;4410509;32;20282;-87
2022/03/20 03:42:17;;;;;;;;;;;;;;;2.84;59.34;102211.59;4409935;32;30950;-88
2022/03/20 03:44:43;;;;;;;;;;;;;;;2.70;59.34;102218.78;4410530;32;20016;-87
2022/03/20 03:47:08;;;;;;;;;;;;;;;2.58;59.33;102220.84;4410503;32;20253;-87
2022/03/20 03:49:34;;;;;;;;;;;;;;;2.64;59.33;102218.53;4410244;32;19986;-87
2022/03/20 03:52:00;;;;;;;;;;;;;;;2.51;59.33;102225.69;4410454;32;19983;-87
2022/03/20 03:54:25;;;;;;;;;;;;;;;2.40;59.32;102221.00;4410730;32;19982;-87
2022/03/20 03:56:51;;;;;;;;;;;;;;;2.53;59.33;102234.34;4424394;32;19977;-87
2022/03/20 03:59:17;;;;;;;;;;;;;;;2.48;59.32;102234.16;4410006;32;25615;-87
2022/03/20 04:01:42;;;;;;;;;;;;;;;2.38;59.32;102232.91;4410549;32;20028;-87
2022/03/20 04:04:08;;;;;;;;;;;;;;;2.41;59.31;102232.16;4410465;32;19990;-86
2022/03/20 04:06:34;;;;;;;;;;;;;;;2.51;59.33;102238.53;4409986;32;23230;-87
2022/03/20 04:08:59;;;;;;;;;;;;;;;2.43;59.33;102244.25;4410472;32;20679;-87
2022/03/20 04:11:24;;;;;;;;;;;;;;;2.51;59.33;102249.69;4410103;32;20022;-87
2022/03/20 04:13:50;;;;;;;;;;;;;;;2.50;59.33;102242.81;4410213;32;20025;-87
2022/03/20 04:16:15;;;;;;;;;;;;;;;2.46;59.32;102251.22;4423716;32;29398;-87
2022/03/20 04:18:41;;;;;;;;;;;;;;;2.39;59.32;102246.66;4410474;32;20323;-87
2022/03/20 04:21:06;;;;;;;;;;;;;;;2.41;59.32;102257.88;4424275;32;19976;-87
2022/03/20 04:23:48;;;;;;;;;;;;;;;2.46;59.32;102256.34;4410314;32;20267;-87
2022/03/20 04:26:16;;;;;;;;;;;;;;;2.28;59.32;102259.03;4411058;32;20343;-87
2022/03/20 04:28:44;;;;;;;;;;;;;;;2.22;59.31;102258.78;4410549;32;20042;-87
2022/03/20 04:31:09;;;;;;;;;;;;;;;2.17;59.31;102269.69;4424355;32;19966;-87
2022/03/20 04:33:35;;;;;;;;;;;;;;;2.26;59.32;102265.81;4410098;32;20101;-87
2022/03/20 04:36:01;;;;;;;;;;;;;;;2.31;59.32;102272.00;4410115;32;20004;-87
2022/03/20 04:38:26;;;;;;;;;;;;;;;2.15;59.31;102273.06;4424137;32;19978;-87
2022/03/20 04:40:52;;;;;;;;;;;;;;;2.13;59.30;102286.69;4424075;32;19989;-87
2022/03/20 04:43:18;;;;;;;;;;;;;;;2.31;59.32;102281.41;4410357;32;20013;-87
2022/03/20 04:45:44;;;;;;;;;;;;;;;2.27;59.31;102289.81;4410190;32;20008;-87
2022/03/20 04:59:05;;;;;;;;;;;;;;;2.16;59.31;102297.09;4423843;32;20328;-87
2022/03/20 05:01:30;;;;;;;;;;;;;;;2.12;59.30;102314.03;4423173;32;29616;-87
2022/03/20 05:03:55;;;;;;;;;;;;;;;2.05;59.30;102317.16;4409852;32;20035;-87
2022/03/20 05:06:21;;;;;;;;;;;;;;;2.02;59.30;102314.44;4423807;32;20274;-87
2022/03/20 05:08:46;;;;;;;;;;;;;;;2.14;59.30;102309.88;4409744;32;20285;-88
2022/03/20 05:13:55;;;;;;;;;;;;;;;2.10;59.30;102313.09;4411876;32;20004;-87
2022/03/20 05:16:20;;;;;;;;;;;;;;;2.07;59.30;102315.53;4423543;32;20307;-87
2022/03/20 05:18:46;;;;;;;;;;;;;;;2.19;59.30;102314.31;4409601;32;19997;-87
2022/03/20 05:21:11;;;;;;;;;;;;;;;2.26;59.31;102319.78;4423485;32;20008;-87
2022/03/20 05:23:36;;;;;;;;;;;;;;;2.22;59.31;102327.28;4409001;32;25810;-88
2022/03/20 05:26:01;;;;;;;;;;;;;;;2.40;59.32;102326.38;4409586;32;19978;-87
2022/03/20 05:28:27;;;;;;;;;;;;;;;2.15;59.30;102334.75;4409271;32;20299;-87
2022/03/20 05:30:52;;;;;;;;;;;;;;;2.37;59.32;102335.66;4409413;32;20235;-87
2022/03/20 05:33:17;;;;;;;;;;;;;;;2.49;59.32;102343.88;4409357;32;20014;-87
2022/03/20 05:35:45;;;;;;;;;;;;;;;2.38;59.32;102351.16;4409459;32;20243;-87
2022/03/20 05:38:10;;;;;;;;;;;;;;;2.57;59.33;102345.06;4411537;32;20009;-87
2022/03/20 05:40:39;;;;;;;;;;;;;;;2.67;59.34;102336.94;4411402;32;20025;-87
2022/03/20 05:43:04;;;;;;;;;;;;;;;2.80;59.33;102342.59;4411468;32;19989;-87
2022/03/20 05:45:31;;;;;;;;;;;;;;;2.84;59.34;102344.44;4411492;32;20035;-87
2022/03/20 05:47:56;;;;;;;;;;;;;;;3.04;59.35;102351.28;4411485;32;19978;-87
2022/03/20 05:50:23;;;;;;;;;;;;;;;3.16;59.36;102350.91;4411341;32;19978;-88
2022/03/20 05:52:48;;;;;;;;;;;;;;;3.20;59.37;102348.53;4411511;32;19984;-87
2022/03/20 05:55:13;;;;;;;;;;;;;;;3.27;59.37;102345.34;4411387;32;19981;-87
2022/03/20 06:00:23;;;;;;;;;;;;;;;3.42;59.37;102355.37;4413484;32;19976;-87
2022/03/20 06:02:49;;;;;;;;;;;;;;;3.49;59.38;102346.19;4425182;32;19978;-87
2022/03/20 06:05:14;;;;;;;;;;;;;;;3.55;59.39;102343.84;4411195;32;19989;-87
2022/03/20 06:07:41;;;;;;;;;;;;;;;3.57;59.39;102352.53;4411163;32;20387;-87
2022/03/20 06:10:07;;;;;;;;;;;;;;;3.63;59.39;102356.22;4411125;32;20050;-87
2022/03/20 06:12:33;;;;;;;;;;;;;;;3.77;59.40;102356.72;4411461;32;19995;-87
2022/03/20 06:14:58;;;;;;;;;;;;;;;3.88;59.40;102373.47;4411150;32;19977;-87
2022/03/20 06:17:24;;;;;;;;;;;;;;;3.87;59.40;102371.72;4411504;32;19997;-87
2022/03/20 06:19:51;;;;;;;;;;;;;;;4.01;59.41;102379.94;4411272;32;20275;-87
2022/03/20 06:22:16;;;;;;;;;;;;;;;3.98;59.42;102374.66;4411226;32;20648;-87
2022/03/20 06:24:41;;;;;;;;;;;;;;;4.00;59.41;102383.34;4410814;32;20314;-87
2022/03/20 06:27:06;;;;;;;;;;;;;;;4.11;59.41;102387.19;4410921;32;19989;-87
2022/03/20 06:29:32;;;;;;;;;;;;;;;4.26;59.42;102392.03;4411107;32;20016;-87
2022/03/20 06:31:57;;;;;;;;;;;;;;;4.51;59.44;102391.22;4411026;32;20001;-87
2022/03/20 06:34:22;;;;;;;;;;;;;;;4.50;59.45;102389.44;4425026;32;20315;-88
2022/03/20 06:36:48;;;;;;;;;;;;;;;4.73;59.45;102385.97;4410993;32;20001;-87
2022/03/20 06:39:13;;;;;;;;;;;;;;;5.01;59.47;102386.88;4410856;32;20303;-88
2022/03/20 06:41:39;;;;;;;;;;;;;;;5.16;59.48;102385.66;4411006;32;19985;-88
2022/03/20 06:44:05;;;;;;;;;;;;;;;5.34;59.49;102389.66;4410805;32;20012;-87
2022/03/20 06:46:33;;;;;;;;;;;;;;;5.41;59.49;102392.47;4411245;32;20037;-87
2022/03/20 06:48:58;;;;;;;;;;;;;;;5.47;59.50;102395.25;4410697;32;19982;-87
2022/03/20 06:51:23;;;;;;;;;;;;;;;5.64;59.51;102400.06;4410734;32;20346;-87
2022/03/20 06:53:49;;;;;;;;;;;;;;;5.76;59.52;102393.56;4411043;32;20044;-87
2022/03/20 06:56:14;;;;;;;;;;;;;;;6.00;59.53;102401.19;4410970;32;20247;-87
2022/03/20 06:58:39;;;;;;;;;;;;;;;6.07;59.54;102404.81;4409163;32;20016;-87
2022/03/20 07:01:05;;;;;;;;;;;;;;;6.00;59.53;102403.78;4410270;32;25036;-87
2022/03/20 07:03:30;;;;;;;;;;;;;;;6.23;59.55;102401.84;4424836;32;19982;-88
2022/03/20 07:05:55;;;;;;;;;;;;;;;6.27;59.54;102407.97;4410734;32;19986;-87
2022/03/20 07:08:21;;;;;;;;;;;;;;;6.26;59.54;102401.06;4424298;32;25519;-88
2022/03/20 07:10:46;;;;;;;;;;;;;;;6.66;59.57;102409.06;4410819;32;20345;-88
2022/03/20 07:15:58;;;;;;;;;;;;;;;6.61;59.57;102414.94;4412997;32;20065;-88
2022/03/20 07:18:23;;;;;;;;;;;;;;;6.70;59.57;102410.91;4410978;32;19974;-87
2022/03/20 07:20:49;;;;;;;;;;;;;;;7.12;59.60;102415.44;4410712;32;20000;-87
2022/03/20 07:23:14;;;;;;;;;;;;;;;7.19;59.60;102421.62;4410725;32;20000;-87
2022/03/20 07:31:07;;;;;;;;;;;;;;;7.21;59.59;102426.00;4424754;32;20004;-88
2022/03/20 07:33:33;;;;;;;;;;;;;;;7.36;59.61;102426.37;4424531;32;20239;-87
2022/03/20 07:35:59;;;;;;;;;;;;;;;7.53;59.61;102429.34;4424632;32;20021;-87
2022/03/20 07:38:24;;;;;;;;;;;;;;;7.69;59.63;102421.09;4410532;32;19978;-87
2022/03/20 07:40:50;;;;;;;;;;;;;;;7.76;59.64;102422.09;4424546;32;20076;-87
2022/03/20 07:43:15;;;;;;;;;;;;;;;7.94;59.64;102429.41;4410675;32;19990;-87
2022/03/20 07:45:40;;;;;;;;;;;;;;;7.87;59.63;102424.94;4424702;32;20278;-87
2022/03/20 07:48:05;;;;;;;;;;;;;;;8.05;59.64;102414.97;4410170;32;22345;-87
2022/03/20 07:50:31;;;;;;;;;;;;;;;8.11;59.64;102417.69;4410242;32;20974;-87
2022/03/20 07:52:59;;;;;;;;;;;;;;;8.01;59.65;102420.91;4410382;32;19989;-87
2022/03/20 07:55:27;;;;;;;;;;;;;;;8.32;59.66;102423.31;4424520;32;20025;-87
2022/03/20 07:57:52;;;;;;;;;;;;;;;8.55;59.67;102416.00;4410630;32;19992;-88
2022/03/20 08:00:17;;;;;;;;;;;;;;;8.70;59.68;102417.13;4424172;32;19989;-87
2022/03/20 08:02:44;;;;;;;;;;;;;;;8.86;59.69;102416.56;4410477;32;20034;-88
2022/03/20 08:05:09;;;;;;;;;;;;;;;8.89;59.70;102416.59;4410543;32;19969;-88
2022/03/20 08:07:35;;;;;;;;;;;;;;;9.21;59.71;102417.13;4409980;32;21874;-88
2022/03/20 08:10:04;;;;;;;;;;;;;;;9.23;59.71;102415.47;4410425;32;19997;-88
2022/03/20 08:12:29;;;;;;;;;;;;;;;9.16;59.71;102424.00;4410414;32;20011;-88
2022/03/20 08:14:56;;;;;;;;;;;;;;;9.16;59.71;102422.25;4410560;32;20027;-88
2022/03/20 08:17:21;;;;;;;;;;;;;;;9.10;59.70;102431.69;4410561;32;20016;-88
2022/03/20 08:19:46;;;;;;;;;;;;;;;9.24;59.71;102414.62;4423041;32;19986;-88
2022/03/20 08:22:11;;;;;;;;;;;;;;;9.47;59.72;102418.44;4410049;32;19998;-88
2022/03/20 08:24:37;;;;;;;;;;;;;;;9.45;59.73;102412.31;4409828;32;21778;-88
2022/03/20 08:27:02;;;;;;;;;;;;;;;9.40;59.73;102408.78;4410077;32;20027;-87
2022/03/20 08:29:27;;;;;;;;;;;;;;;9.46;59.72;102415.78;4424313;32;20017;-88
2022/03/20 08:31:54;;;;;;;;;;;;;;;9.74;59.74;102404.97;4423777;32;21819;-87
2022/03/20 08:34:19;;;;;;;;;;;;;;;9.91;59.75;102401.69;4410284;32;20001;-87
2022/03/20 08:36:44;;;;;;;;;;;;;;;10.03;59.76;102400.13;4410233;32;19962;-87
2022/03/20 08:39:10;;;;;;;;;;;;;;;10.13;59.76;102404.59;4409898;32;20302;-88
2022/03/20 08:41:35;;;;;;;;;;;;;;;10.54;59.79;102395.53;4410125;32;19997;-87
2022/03/20 08:44:01;;;;;;;;;;;;;;;10.65;59.79;102399.13;4424036;32;20003;-87
2022/03/20 08:46:27;;;;;;;;;;;;;;;10.84;59.81;102394.97;4410242;32;20302;-87
2022/03/20 08:48:52;;;;;;;;;;;;;;;10.97;59.80;102396.81;4409993;32;20037;-87
2022/03/20 08:51:17;;;;;;;;;;;;;;;11.05;59.81;102389.94;4409929;32;19993;-87
2022/03/20 08:53:42;;;;;;;;;;;;;;;11.17;59.82;102392.66;4410011;32;19988;-88
2022/03/20 08:56:08;;;;;;;;;;;;;;;11.43;59.83;102397.19;4423703;32;19998;-87
2022/03/20 08:58:33;;;;;;;;;;;;;;;11.54;59.85;102396.37;4423792;32;20405;-88
2022/03/20 09:00:58;;;;;;;;;;;;;;;11.63;59.85;102390.34;4423840;32;20323;-87
2022/03/20 09:03:24;;;;;;;;;;;;;;;11.67;59.86;102399.94;4409883;32;19978;-87
2022/03/20 09:05:50;;;;;;;;;;;;;;;11.86;59.87;102395.72;4410087;32;19985;-88
2022/03/20 09:08:15;;;;;;;;;;;;;;;11.41;59.83;102389.34;4409728;32;20354;-87
2022/03/20 09:10:41;;;;;;;;;;;;;;;11.49;59.84;102390.25;4423435;32;20351;-88
2022/03/20 09:13:06;;;;;;;;;;;;;;;11.66;59.85;102388.63;4411659;32;19986;-88
2022/03/20 09:15:31;;;;;;;;;;;;;;;11.76;59.86;102392.16;4411570;32;19979;-88
2022/03/20 09:20:42;;;;;;;;;;;;;;;11.97;59.88;102383.59;4425508;32;20058;-87
2022/03/20 09:23:07;;;;;;;;;;;;;;;11.98;59.88;102382.72;4411668;32;20236;-88
2022/03/20 09:25:33;;;;;;;;;;;;;;;11.79;59.86;102380.88;4411561;32;19966;-87
2022/03/20 09:27:58;;;;;;;;;;;;;;;11.98;59.87;102369.66;4411465;32;20005;-87
2022/03/20 09:30:24;;;;;;;;;;;;;;;12.04;59.88;102367.06;4425521;32;20000;-87
2022/03/20 09:32:49;;;;;;;;;;;;;;;12.15;59.88;102362.78;4425558;32;19978;-87
2022/03/20 09:35:14;;;;;;;;;;;;;;;12.16;59.88;102361.91;4410651;32;33798;-88
2022/03/20 09:37:39;;;;;;;;;;;;;;;12.25;59.88;102367.16;4411228;32;20012;-88
2022/03/20 09:40:05;;;;;;;;;;;;;;;12.49;59.89;102358.50;4411299;32;19985;-87
2022/03/20 09:42:30;;;;;;;;;;;;;;;12.59;59.90;102357.66;4411242;32;20392;-88
2022/03/20 09:44:55;;;;;;;;;;;;;;;12.50;59.90;102357.62;4411364;32;20024;-87
2022/03/20 09:47:23;;;;;;;;;;;;;;;12.57;59.90;102362.00;4411438;32;20013;-88
2022/03/20 09:49:49;;;;;;;;;;;;;;;12.54;59.90;102353.31;4425427;32;20001;-88
2022/03/20 09:52:14;;;;;;;;;;;;;;;12.25;59.88;102366.28;4411187;32;20311;-88
2022/03/20 09:54:39;;;;;;;;;;;;;;;12.37;59.89;102370.69;4425306;32;19970;-87
2022/03/20 09:57:05;;;;;;;;;;;;;;;12.51;59.90;102368.94;4425222;32;19993;-88
2022/03/20 09:59:31;;;;;;;;;;;;;;;12.44;59.90;102375.03;4425270;32;20002;-88
2022/03/20 10:02:02;;;;;;;;;;;;;;;12.33;59.88;102368.94;4425172;32;20005;-87
2022/03/20 10:04:28;;;;;;;;;;;;;;;12.60;59.90;102354.19;4411451;32;20349;-88
2022/03/20 10:06:53;;;;;;;;;;;;;;;12.71;59.90;102358.53;4411295;32;20279;-88
2022/03/20 10:09:18;;;;;;;;;;;;;;;12.51;59.90;102345.44;4424873;32;19974;-88
2022/03/20 10:11:47;;;;;;;;;;;;;;;12.27;59.89;102352.34;4410812;32;20346;-88
2022/03/20 10:14:16;;;;;;;;;;;;;;;12.18;59.88;102348.84;4411225;32;20041;-87
2022/03/20 10:16:43;;;;;;;;;;;;;;;12.02;59.87;102347.06;4411190;32;20012;-88
2022/03/20 10:19:23;;;;;;;;;;;;;;;12.10;59.87;102350.59;4411254;32;19993;-88
2022/03/20 10:21:52;;;;;;;;;;;;;;;12.50;59.89;102341.09;4411006;32;19998;-88
2022/03/20 10:24:18;;;;;;;;;;;;;;;12.85;59.91;102338.50;4410226;32;19974;-87
2022/03/20 10:26:43;;;;;;;;;;;;;;;12.77;59.91;102342.84;4411140;32;20375;-88
2022/03/20 10:29:15;;;;;;;;;;;;;;;12.95;59.92;102332.38;4424961;32;20020;-88
2022/03/20 10:31:48;;;;;;;;;;;;;;;12.98;59.93;102328.91;4411304;32;20341;-88
2022/03/20 10:34:14;;;;;;;;;;;;;;;13.09;59.92;102332.41;4411187;32;19973;-88
2022/03/20 10:36:41;;;;;;;;;;;;;;;13.10;59.92;102335.00;4425038;32;20261;-88
2022/03/20 10:39:14;;;;;;;;;;;;;;;13.18;59.94;102324.56;4411031;32;20350;-88
2022/03/20 10:41:39;;;;;;;;;;;;;;;13.26;59.94;102320.19;4411135;32;20030;-88
2022/03/20 10:44:18;;;;;;;;;;;;;;;13.18;59.94;102332.41;4411030;32;20331;-87
2022/03/20 10:46:44;;;;;;;;;;;;;;;13.38;59.95;102324.53;4411031;32;19990;-88
2022/03/20 10:49:11;;;;;;;;;;;;;;;13.06;59.93;102335.88;4410770;32;19985;-88
2022/03/20 10:51:38;;;;;;;;;;;;;;;12.78;59.91;102329.81;4410806;32;20034;-88
2022/03/20 10:54:04;;;;;;;;;;;;;;;12.65;59.91;102330.66;4411110;32;19974;-88
2022/03/20 10:56:29;;;;;;;;;;;;;;;12.50;59.90;102321.06;4410846;32;19989;-88
2022/03/20 10:58:54;;;;;;;;;;;;;;;12.81;59.92;102326.31;4410495;32;20037;-88
2022/03/20 11:01:20;;;;;;;;;;;;;;;13.12;59.94;102314.06;4410710;32;19990;-87
2022/03/20 11:03:46;;;;;;;;;;;;;;;12.88;59.92;102318.47;4410853;32;20024;-88
2022/03/20 11:06:11;;;;;;;;;;;;;;;12.84;59.91;102302.78;4410973;32;19982;-88
2022/03/20 11:08:39;;;;;;;;;;;;;;;12.74;59.92;102309.75;4410848;32;20286;-87
2022/03/20 11:11:05;;;;;;;;;;;;;;;12.83;59.92;102306.28;4411098;32;19994;-87
2022/03/20 11:13:31;;;;;;;;;;;;;;;13.04;59.93;102302.78;4410762;32;20377;-87
2022/03/20 11:15:57;;;;;;;;;;;;;;;13.07;59.93;102301.00;4410597;32;20016;-88
2022/03/20 11:18:23;;;;;;;;;;;;;;;13.08;59.93;102296.66;4410699;32;19990;-88
2022/03/20 11:20:48;;;;;;;;;;;;;;;13.14;59.94;102288.78;4410660;32;20001;-88
2022/03/20 11:23:14;;;;;;;;;;;;;;;13.09;59.93;102290.56;4410811;32;19974;-88
2022/03/20 11:25:40;;;;;;;;;;;;;;;13.25;59.94;102294.00;4410956;32;20028;-88
2022/03/20 11:28:05;;;;;;;;;;;;;;;13.20;59.95;102284.44;4424751;32;20004;-87
2022/03/20 11:30:32;;;;;;;;;;;;;;;13.02;59.92;102279.25;4410294;32;22032;-88
2022/03/20 11:33:00;;;;;;;;;;;;;;;12.78;59.91;102282.75;4410838;32;19984;-88
2022/03/20 11:35:28;;;;;;;;;;;;;;;12.77;59.91;102280.13;4424213;32;20302;-88
2022/03/20 11:37:55;;;;;;;;;;;;;;;12.63;59.91;102272.31;4424569;32;20334;-88
2022/03/20 11:40:20;;;;;;;;;;;;;;;12.55;59.90;102267.09;4410923;32;20345;-88
2022/03/20 11:42:46;;;;;;;;;;;;;;;12.63;59.91;102264.47;4410817;32;19990;-88
2022/03/20 11:45:12;;;;;;;;;;;;;;;12.81;59.92;102264.44;4424591;32;19990;-88
2022/03/20 11:47:38;;;;;;;;;;;;;;;12.74;59.92;102254.00;4410576;32;20008;-87
2022/03/20 11:50:16;;;;;;;;;;;;;;;12.79;59.91;102244.44;4410717;32;19985;-88
2022/03/20 11:52:44;;;;;;;;;;;;;;;12.47;59.90;102242.69;4410414;32;19973;-88
2022/03/20 11:55:14;;;;;;;;;;;;;;;12.54;59.90;102244.44;4424596;32;19997;-87
2022/03/20 11:57:40;;;;;;;;;;;;;;;12.70;59.91;102245.28;4410165;32;20005;-88
2022/03/20 12:00:10;;;;;;;;;;;;;;;12.60;59.90;102244.44;4424531;32;20007;-88
2022/03/20 12:02:35;;;;;;;;;;;;;;;12.84;59.92;102238.31;4410671;32;20023;-88
2022/03/20 12:05:08;;;;;;;;;;;;;;;13.08;59.94;102236.50;4410424;32;20065;-87
2022/03/20 12:07:33;;;;;;;;;;;;;;;13.07;59.93;102227.81;4424430;32;20103;-87
2022/03/20 12:10:17;;;;;;;;;;;;;;;13.14;59.94;102231.25;4424368;32;19986;-87
2022/03/20 12:13:04;;;;;;;;;;;;;;;13.43;59.95;102223.34;4424471;32;20299;-88
2022/03/20 12:15:30;;;;;;;;;;;;;;;13.63;59.96;102218.00;4424624;32;19982;-88
2022/03/20 12:17:56;;;;;;;;;;;;;;;13.56;59.96;102230.25;4410763;32;20061;-88
2022/03/20 12:21:01;;;;;;;;;;;;;;;13.59;59.96;102214.53;4410787;32;20736;-87
2022/03/20 12:23:30;;;;;;;;;;;;;;;13.70;59.96;102215.34;4391549;32;20162;-88
2022/03/20 12:25:55;;;;;;;;;;;;;;;13.31;59.94;102215.56;4417957;32;19990;-88
2022/03/20 12:28:27;;;;;;;;;;;;;;;13.12;59.94;102219.94;4424261;32;20450;-87
2022/03/20 12:30:52;;;;;;;;;;;;;;;13.02;59.92;102218.25;4410342;32;19974;-88
2022/03/20 12:33:21;;;;;;;;;;;;;;;12.74;59.92;102223.50;4410056;32;19988;-88
2022/03/20 12:35:47;;;;;;;;;;;;;;;13.13;59.94;102214.69;4410417;32;19997;-87
2022/03/20 12:38:31;;;;;;;;;;;;;;;13.23;59.94;102212.06;4410171;32;20007;-88
2022/03/20 12:40:57;;;;;;;;;;;;;;;12.90;59.92;102216.50;4410261;32;20004;-88
2022/03/20 12:43:22;;;;;;;;;;;;;;;12.66;59.91;102212.19;4409408;32;28108;-88
2022/03/20 12:45:48;;;;;;;;;;;;;;;12.37;59.90;102207.00;4408537;32;28005;-87
2022/03/20 12:48:14;;;;;;;;;;;;;;;12.21;59.89;102213.06;4409940;32;20020;-88
2022/03/20 12:50:40;;;;;;;;;;;;;;;12.49;59.91;102200.88;4410170;32;20008;-88
2022/03/20 12:53:16;;;;;;;;;;;;;;;12.79;59.91;102198.25;4409939;32;20297;-88
2022/03/20 12:55:41;;;;;;;;;;;;;;;13.15;59.93;102197.25;4410023;32;20017;-89
2022/03/20 12:58:12;;;;;;;;;;;;;;;13.31;59.94;102184.16;4409783;32;20049;-88
2022/03/20 13:00:38;;;;;;;;;;;;;;;13.14;59.94;102199.87;4410579;32;19977;-88
2022/03/20 13:03:04;;;;;;;;;;;;;;;13.00;59.93;102188.59;4423932;32;19989;-88
2022/03/20 13:05:30;;;;;;;;;;;;;;;12.86;59.92;102188.63;4410045;32;20029;-88
2022/03/20 13:07:56;;;;;;;;;;;;;;;12.83;59.92;102183.44;4409856;32;20409;-88
2022/03/20 13:10:25;;;;;;;;;;;;;;;12.69;59.91;102187.78;4423767;32;20357;-88
2022/03/20 13:12:51;;;;;;;;;;;;;;;12.79;59.91;102174.72;4409801;32;20043;-88
2022/03/20 13:15:23;;;;;;;;;;;;;;;12.93;59.92;102179.03;4423771;32;20008;-88